Accueil
METAR-TAF:

METAR-TAF

Aéroports :

Aéroport international de Ndjili

Kinshasa, Congo

latitude: 04-23S, longitude: 015-26E, altitude: 309 m

Observation

Le bulletin a été fait il y a 1 heure et 14 minutes, à 20:00 UTC
Vent 10 kt de ouest
Température 24°C
Humidité 65%
Pression 1014 hPa
Visibilité: 7000 m

METAR: FZAA 172000Z 27010KT 7000 NSC 24/17 Q1014 NOSIG

Heure: 22:14 (21:14 UTC)

Prévision

Le bulletin a été fait il y a 10 heures et 14 minutes, à 11:00 UTC
Prévision valable du 17 à 12 UTC au 18 à 18 UTC
Vent 8 kt de ouest
Visibilité: 7000 m
Nuages épars à une hauteur de 2000 ft
Probabilité 30%
du 18 à 06 UTC au 18 à 09 UTC
Visibilité: 4000 m
Nuages fragmentés à une hauteur de 1400 ft
brume

TAF: FZAA 171100Z 1712/1818 26008KT 7000 SCT020 PROB30 1806/1809 4000 BR BKN014

Observations et prévisions météorologiques de plus de 4000 aéroports (messages METAR et TAF).

Les stations disponibles sont représentées par des disques jaunes et rouges sur la carte.

Passer la souris dessus pour voir le nom de la station.

Cliquer dessus pour voir les observations et prévisions météorologiques.

Pour changer de carte: cliquez sur les boutons verts avec une croix noire pour zoomer, sur le bouton vert avec un tiret pour effectuer un zoom arrière, ou sur les flèches vertes pour les cartes adjacentes.


METAR-TAF: